Meadows Field
KBFL : now visible

Airfield :











YOU CAN JOIN US ON...

 
LOGIN :

Register | Disclaimer

   EN    FR    IT 

 









Legend :    VFR   Marginal VFR   IFR   Intensive IFR   Very Intensive IFR
Visi :
Ceiling :
>= 8 km
>= 3000ft
5 to 8 km
1000 to 3000 ft
1500m to 5 km
500 to 1000 ft
800 to 1500m
200 to 500 ft
< 800m
< 200 ft
Symbols :   Thunderstorms  Fog  Heavy snow  Heavy precipitations  Wind > 20 kt






- Airport Elevation : 510 ft
- IATA code : BFL


KBFL - Meadows Field

CURRENT METAR :
  • 250854Z AUTO 00000KT 10SM CLR 31/11 A2984 RMK AO2 SLP095 T03060111 55000

EXPIRED METARs :
  • 250754Z AUTO 35005KT 10SM CLR 30/11 A2983 RMK AO2 SLP094 T03000111 404060261
  • 250654Z AUTO 34006KT 10SM CLR 29/15 A2983 RMK AO2 SLP094 T02940150
  • 250554Z AUTO 33004KT 10SM CLR 30/15 A2984 RMK AO2 SLP095 T03000150 10406 20300 51020
  • 250454Z 32006KT 10SM CLR 31/15 A2982 RMK AO2 SLP091 T03060150

TAF KBFL
Valid from the 25 at 06:00 until the 26 at 06:00 UTC


250520Z 2506/2606 32006KT P6SM SCT250
FM251800 32012G18KT P6SM FEW150
FM260000 31012KT P6SM FEW250
KZLA FIR / North America



MET'MAP, your aeronautical weather chart ! - Copyright ORBIFLY December 2007 - Disclaimer

ORBIFLY MET'MAP TEAM :

Programming & Development : Alexandra Zaïnal
Original concept : Baudouin d'Aumeries
Technical & hardware support : Manuel Goepfert
Assistance : Marc-Olivier Méhu




SOURCES & CREDITS :

   NOAA       Earth
Advisory